sensor_id;sensor_type;location;lat;lon;timestamp;P1;durP1;ratioP1;P2;durP2;ratioP2
16262;SDS011;8239;48.594;8.598;2024-01-15T00:01:44;16.87;;;5.83;;
16262;SDS011;8239;48.594;8.598;2024-01-15T00:04:13;16.57;;;6.77;;
16262;SDS011;8239;48.594;8.598;2024-01-15T00:06:40;18.13;;;6.93;;
16262;SDS011;8239;48.594;8.598;2024-01-15T00:09:07;14.70;;;6.23;;
16262;SDS011;8239;48.594;8.598;2024-01-15T00:11:34;15.77;;;5.23;;
16262;SDS011;8239;48.594;8.598;2024-01-15T00:14:00;16.23;;;6.60;;
16262;SDS011;8239;48.594;8.598;2024-01-15T00:16:28;14.20;;;5.80;;
16262;SDS011;8239;48.594;8.598;2024-01-15T00:18:55;17.07;;;6.67;;
16262;SDS011;8239;48.594;8.598;2024-01-15T00:21:23;14.03;;;5.20;;
16262;SDS011;8239;48.594;8.598;2024-01-15T00:23:50;16.03;;;6.80;;
16262;SDS011;8239;48.594;8.598;2024-01-15T00:26:17;18.83;;;6.97;;
16262;SDS011;8239;48.594;8.598;2024-01-15T00:28:44;18.30;;;7.50;;
16262;SDS011;8239;48.594;8.598;2024-01-15T00:31:10;17.43;;;6.40;;
16262;SDS011;8239;48.594;8.598;2024-01-15T00:33:37;18.07;;;7.53;;
16262;SDS011;8239;48.594;8.598;2024-01-15T00:36:05;17.43;;;6.67;;
16262;SDS011;8239;48.594;8.598;2024-01-15T00:38:33;17.80;;;6.90;;
16262;SDS011;8239;48.594;8.598;2024-01-15T00:41:00;16.57;;;7.20;;
16262;SDS011;8239;48.594;8.598;2024-01-15T00:43:28;17.97;;;7.07;;
16262;SDS011;8239;48.594;8.598;2024-01-15T00:45:54;20.67;;;7.43;;
16262;SDS011;8239;48.594;8.598;2024-01-15T00:48:21;17.07;;;6.87;;
16262;SDS011;8239;48.594;8.598;2024-01-15T00:50:48;16.97;;;7.60;;
16262;SDS011;8239;48.594;8.598;2024-01-15T00:53:15;17.77;;;7.43;;
16262;SDS011;8239;48.594;8.598;2024-01-15T00:55:43;18.67;;;7.90;;
16262;SDS011;8239;48.594;8.598;2024-01-15T00:58:10;19.00;;;7.40;;
16262;SDS011;8239;48.594;8.598;2024-01-15T01:00:37;17.53;;;8.23;;
16262;SDS011;8239;48.594;8.598;2024-01-15T01:03:04;19.20;;;7.80;;
16262;SDS011;8239;48.594;8.598;2024-01-15T01:05:31;21.33;;;8.30;;
16262;SDS011;8239;48.594;8.598;2024-01-15T01:07:59;17.57;;;7.70;;
16262;SDS011;8239;48.594;8.598;2024-01-15T01:10:27;20.20;;;7.30;;
16262;SDS011;8239;48.594;8.598;2024-01-15T01:12:55;19.37;;;7.50;;
16262;SDS011;8239;48.594;8.598;2024-01-15T01:15:22;17.17;;;6.90;;
16262;SDS011;8239;48.594;8.598;2024-01-15T01:17:49;19.70;;;7.67;;
16262;SDS011;8239;48.594;8.598;2024-01-15T01:20:16;19.90;;;8.50;;
16262;SDS011;8239;48.594;8.598;2024-01-15T01:22:43;20.43;;;7.70;;
16262;SDS011;8239;48.594;8.598;2024-01-15T01:25:10;18.33;;;7.40;;
16262;SDS011;8239;48.594;8.598;2024-01-15T01:27:37;22.53;;;8.43;;
16262;SDS011;8239;48.594;8.598;2024-01-15T01:30:06;24.60;;;9.00;;
16262;SDS011;8239;48.594;8.598;2024-01-15T01:32:33;20.63;;;7.90;;
16262;SDS011;8239;48.594;8.598;2024-01-15T01:35:00;20.70;;;8.43;;
16262;SDS011;8239;48.594;8.598;2024-01-15T01:37:28;20.30;;;8.10;;
16262;SDS011;8239;48.594;8.598;2024-01-15T01:39:55;20.10;;;8.23;;
16262;SDS011;8239;48.594;8.598;2024-01-15T01:42:22;22.13;;;8.20;;
16262;SDS011;8239;48.594;8.598;2024-01-15T01:44:48;20.03;;;8.30;;
16262;SDS011;8239;48.594;8.598;2024-01-15T01:47:17;19.87;;;8.30;;
16262;SDS011;8239;48.594;8.598;2024-01-15T01:49:44;20.57;;;8.73;;
16262;SDS011;8239;48.594;8.598;2024-01-15T01:52:12;21.10;;;8.00;;
16262;SDS011;8239;48.594;8.598;2024-01-15T01:54:39;20.07;;;7.57;;
16262;SDS011;8239;48.594;8.598;2024-01-15T01:57:07;17.50;;;7.47;;
16262;SDS011;8239;48.594;8.598;2024-01-15T01:59:35;19.23;;;7.60;;
16262;SDS011;8239;48.594;8.598;2024-01-15T02:02:03;17.83;;;7.47;;
16262;SDS011;8239;48.594;8.598;2024-01-15T02:04:32;19.77;;;8.27;;
16262;SDS011;8239;48.594;8.598;2024-01-15T02:07:01;19.00;;;7.17;;
16262;SDS011;8239;48.594;8.598;2024-01-15T02:09:29;18.17;;;7.53;;
16262;SDS011;8239;48.594;8.598;2024-01-15T02:11:57;19.77;;;8.10;;
16262;SDS011;8239;48.594;8.598;2024-01-15T02:14:24;23.13;;;8.43;;
16262;SDS011;8239;48.594;8.598;2024-01-15T02:16:51;21.80;;;8.37;;
16262;SDS011;8239;48.594;8.598;2024-01-15T02:19:18;22.73;;;8.47;;
16262;SDS011;8239;48.594;8.598;2024-01-15T02:21:46;20.87;;;8.10;;
16262;SDS011;8239;48.594;8.598;2024-01-15T02:24:14;19.93;;;7.87;;
16262;SDS011;8239;48.594;8.598;2024-01-15T02:26:41;19.60;;;7.50;;
16262;SDS011;8239;48.594;8.598;2024-01-15T02:29:09;13.17;;;5.23;;
16262;SDS011;8239;48.594;8.598;2024-01-15T02:31:36;18.67;;;7.93;;
16262;SDS011;8239;48.594;8.598;2024-01-15T02:34:03;19.57;;;8.47;;
16262;SDS011;8239;48.594;8.598;2024-01-15T02:36:30;18.60;;;7.90;;
16262;SDS011;8239;48.594;8.598;2024-01-15T02:38:57;17.50;;;7.07;;
16262;SDS011;8239;48.594;8.598;2024-01-15T02:41:25;20.47;;;7.40;;
16262;SDS011;8239;48.594;8.598;2024-01-15T02:43:52;21.80;;;8.30;;
16262;SDS011;8239;48.594;8.598;2024-01-15T02:46:19;18.30;;;7.30;;
16262;SDS011;8239;48.594;8.598;2024-01-15T02:48:46;20.73;;;6.87;;
16262;SDS011;8239;48.594;8.598;2024-01-15T02:51:13;21.00;;;8.43;;
16262;SDS011;8239;48.594;8.598;2024-01-15T02:53:40;19.40;;;7.83;;
16262;SDS011;8239;48.594;8.598;2024-01-15T02:56:06;18.83;;;7.37;;
16262;SDS011;8239;48.594;8.598;2024-01-15T02:58:35;19.53;;;7.70;;
16262;SDS011;8239;48.594;8.598;2024-01-15T03:01:02;17.77;;;7.60;;
16262;SDS011;8239;48.594;8.598;2024-01-15T03:03:29;18.43;;;7.53;;
16262;SDS011;8239;48.594;8.598;2024-01-15T03:05:56;19.93;;;7.53;;
16262;SDS011;8239;48.594;8.598;2024-01-15T03:08:22;22.77;;;8.50;;
16262;SDS011;8239;48.594;8.598;2024-01-15T03:10:49;21.63;;;8.73;;
16262;SDS011;8239;48.594;8.598;2024-01-15T03:13:16;20.97;;;7.70;;
16262;SDS011;8239;48.594;8.598;2024-01-15T03:15:45;16.77;;;7.70;;
16262;SDS011;8239;48.594;8.598;2024-01-15T03:18:12;20.37;;;7.33;;
16262;SDS011;8239;48.594;8.598;2024-01-15T03:20:39;21.63;;;8.20;;
16262;SDS011;8239;48.594;8.598;2024-01-15T03:23:06;21.30;;;8.30;;
16262;SDS011;8239;48.594;8.598;2024-01-15T03:25:33;15.70;;;5.93;;
16262;SDS011;8239;48.594;8.598;2024-01-15T03:28:00;18.47;;;7.87;;
16262;SDS011;8239;48.594;8.598;2024-01-15T03:30:27;21.30;;;8.57;;
16262;SDS011;8239;48.594;8.598;2024-01-15T03:32:55;18.80;;;7.27;;
16262;SDS011;8239;48.594;8.598;2024-01-15T03:35:22;19.60;;;8.40;;
16262;SDS011;8239;48.594;8.598;2024-01-15T03:37:54;18.70;;;8.17;;
16262;SDS011;8239;48.594;8.598;2024-01-15T03:40:21;21.53;;;7.90;;
16262;SDS011;8239;48.594;8.598;2024-01-15T03:42:48;19.37;;;8.23;;
16262;SDS011;8239;48.594;8.598;2024-01-15T03:45:15;18.47;;;7.50;;
16262;SDS011;8239;48.594;8.598;2024-01-15T03:47:41;11.27;;;5.37;;
16262;SDS011;8239;48.594;8.598;2024-01-15T03:50:10;17.03;;;7.53;;
16262;SDS011;8239;48.594;8.598;2024-01-15T03:52:37;17.77;;;7.20;;
16262;SDS011;8239;48.594;8.598;2024-01-15T03:55:04;20.63;;;8.43;;
16262;SDS011;8239;48.594;8.598;2024-01-15T03:57:31;16.30;;;6.87;;
16262;SDS011;8239;48.594;8.598;2024-01-15T03:59:58;16.43;;;6.23;;
16262;SDS011;8239;48.594;8.598;2024-01-15T04:02:25;18.97;;;7.80;;
16262;SDS011;8239;48.594;8.598;2024-01-15T04:04:52;14.27;;;6.67;;
16262;SDS011;8239;48.594;8.598;2024-01-15T04:07:20;17.73;;;7.53;;
16262;SDS011;8239;48.594;8.598;2024-01-15T04:09:47;18.33;;;7.33;;
16262;SDS011;8239;48.594;8.598;2024-01-15T04:12:14;19.07;;;8.03;;
16262;SDS011;8239;48.594;8.598;2024-01-15T04:14:41;17.57;;;8.07;;
16262;SDS011;8239;48.594;8.598;2024-01-15T04:17:08;17.53;;;7.77;;
16262;SDS011;8239;48.594;8.598;2024-01-15T04:19:35;18.73;;;7.53;;
16262;SDS011;8239;48.594;8.598;2024-01-15T04:22:02;20.23;;;8.77;;
16262;SDS011;8239;48.594;8.598;2024-01-15T04:24:32;19.47;;;8.23;;
16262;SDS011;8239;48.594;8.598;2024-01-15T04:26:59;18.73;;;7.70;;
16262;SDS011;8239;48.594;8.598;2024-01-15T04:29:26;18.80;;;7.90;;
16262;SDS011;8239;48.594;8.598;2024-01-15T04:31:53;18.43;;;8.30;;
16262;SDS011;8239;48.594;8.598;2024-01-15T04:34:20;17.50;;;7.23;;
16262;SDS011;8239;48.594;8.598;2024-01-15T04:36:47;16.20;;;7.17;;
16262;SDS011;8239;48.594;8.598;2024-01-15T04:39:14;19.60;;;7.80;;
16262;SDS011;8239;48.594;8.598;2024-01-15T04:41:42;21.53;;;8.40;;
16262;SDS011;8239;48.594;8.598;2024-01-15T04:44:09;18.40;;;7.37;;
16262;SDS011;8239;48.594;8.598;2024-01-15T04:46:36;17.40;;;7.33;;
16262;SDS011;8239;48.594;8.598;2024-01-15T04:49:02;18.07;;;7.47;;
16262;SDS011;8239;48.594;8.598;2024-01-15T04:51:30;18.57;;;7.67;;
16262;SDS011;8239;48.594;8.598;2024-01-15T04:53:57;17.80;;;7.30;;
16262;SDS011;8239;48.594;8.598;2024-01-15T04:56:23;20.77;;;7.50;;
16262;SDS011;8239;48.594;8.598;2024-01-15T04:58:52;16.33;;;7.00;;
16262;SDS011;8239;48.594;8.598;2024-01-15T05:01:19;15.30;;;6.37;;
16262;SDS011;8239;48.594;8.598;2024-01-15T05:03:46;18.63;;;7.70;;
16262;SDS011;8239;48.594;8.598;2024-01-15T05:06:12;16.17;;;7.67;;
16262;SDS011;8239;48.594;8.598;2024-01-15T05:08:39;16.17;;;7.13;;
16262;SDS011;8239;48.594;8.598;2024-01-15T05:11:06;14.17;;;6.60;;
16262;SDS011;8239;48.594;8.598;2024-01-15T05:13:33;14.87;;;6.77;;
16262;SDS011;8239;48.594;8.598;2024-01-15T05:16:02;15.67;;;6.90;;
16262;SDS011;8239;48.594;8.598;2024-01-15T05:18:29;12.83;;;6.17;;
16262;SDS011;8239;48.594;8.598;2024-01-15T05:20:56;16.63;;;6.93;;
16262;SDS011;8239;48.594;8.598;2024-01-15T05:23:23;6.77;;;3.67;;
16262;SDS011;8239;48.594;8.598;2024-01-15T05:25:50;12.57;;;6.03;;
16262;SDS011;8239;48.594;8.598;2024-01-15T05:28:17;16.33;;;6.93;;
16262;SDS011;8239;48.594;8.598;2024-01-15T05:30:44;15.87;;;6.70;;
16262;SDS011;8239;48.594;8.598;2024-01-15T05:33:13;14.30;;;6.20;;
16262;SDS011;8239;48.594;8.598;2024-01-15T05:35:40;12.80;;;6.10;;
16262;SDS011;8239;48.594;8.598;2024-01-15T05:38:06;12.67;;;6.63;;
16262;SDS011;8239;48.594;8.598;2024-01-15T05:40:33;11.93;;;5.90;;
16262;SDS011;8239;48.594;8.598;2024-01-15T05:43:00;12.83;;;5.77;;
16262;SDS011;8239;48.594;8.598;2024-01-15T05:45:28;12.03;;;5.80;;
16262;SDS011;8239;48.594;8.598;2024-01-15T05:47:56;10.17;;;5.20;;
16262;SDS011;8239;48.594;8.598;2024-01-15T05:50:25;11.03;;;5.40;;
16262;SDS011;8239;48.594;8.598;2024-01-15T05:52:52;12.07;;;5.47;;
16262;SDS011;8239;48.594;8.598;2024-01-15T05:55:19;11.50;;;5.10;;
16262;SDS011;8239;48.594;8.598;2024-01-15T05:57:46;12.97;;;5.80;;
16262;SDS011;8239;48.594;8.598;2024-01-15T06:00:13;13.87;;;5.90;;
16262;SDS011;8239;48.594;8.598;2024-01-15T06:02:40;13.73;;;6.97;;
16262;SDS011;8239;48.594;8.598;2024-01-15T06:05:07;17.90;;;7.20;;
16262;SDS011;8239;48.594;8.598;2024-01-15T06:07:35;13.13;;;6.80;;
16262;SDS011;8239;48.594;8.598;2024-01-15T06:10:02;12.00;;;6.23;;
16262;SDS011;8239;48.594;8.598;2024-01-15T06:12:30;13.93;;;6.50;;
16262;SDS011;8239;48.594;8.598;2024-01-15T06:14:57;10.83;;;5.70;;
16262;SDS011;8239;48.594;8.598;2024-01-15T06:17:24;10.67;;;5.50;;
16262;SDS011;8239;48.594;8.598;2024-01-15T06:19:51;12.73;;;5.43;;
16262;SDS011;8239;48.594;8.598;2024-01-15T06:22:18;10.47;;;5.67;;
16262;SDS011;8239;48.594;8.598;2024-01-15T06:24:46;11.90;;;5.50;;
16262;SDS011;8239;48.594;8.598;2024-01-15T06:27:13;13.13;;;5.50;;
16262;SDS011;8239;48.594;8.598;2024-01-15T06:29:44;9.60;;;5.60;;
16262;SDS011;8239;48.594;8.598;2024-01-15T06:32:12;13.17;;;5.13;;
16262;SDS011;8239;48.594;8.598;2024-01-15T06:34:39;20.37;;;8.57;;
16262;SDS011;8239;48.594;8.598;2024-01-15T06:37:06;13.60;;;6.77;;
16262;SDS011;8239;48.594;8.598;2024-01-15T06:39:33;9.07;;;4.57;;
16262;SDS011;8239;48.594;8.598;2024-01-15T06:42:02;10.70;;;5.20;;
16262;SDS011;8239;48.594;8.598;2024-01-15T06:44:29;9.70;;;4.90;;
16262;SDS011;8239;48.594;8.598;2024-01-15T06:46:56;10.23;;;5.03;;
16262;SDS011;8239;48.594;8.598;2024-01-15T06:49:27;10.07;;;4.97;;
16262;SDS011;8239;48.594;8.598;2024-01-15T06:51:54;11.30;;;5.13;;
16262;SDS011;8239;48.594;8.598;2024-01-15T06:54:21;9.60;;;4.60;;
16262;SDS011;8239;48.594;8.598;2024-01-15T06:56:48;9.07;;;4.80;;
16262;SDS011;8239;48.594;8.598;2024-01-15T06:59:17;12.10;;;5.63;;
16262;SDS011;8239;48.594;8.598;2024-01-15T07:01:44;10.57;;;5.50;;
16262;SDS011;8239;48.594;8.598;2024-01-15T07:04:11;9.83;;;5.10;;
16262;SDS011;8239;48.594;8.598;2024-01-15T07:06:38;9.03;;;4.83;;
16262;SDS011;8239;48.594;8.598;2024-01-15T07:09:05;9.40;;;5.00;;
16262;SDS011;8239;48.594;8.598;2024-01-15T07:11:33;9.17;;;4.13;;
16262;SDS011;8239;48.594;8.598;2024-01-15T07:14:00;9.43;;;5.10;;
16262;SDS011;8239;48.594;8.598;2024-01-15T07:16:28;9.17;;;4.73;;
16262;SDS011;8239;48.594;8.598;2024-01-15T07:18:55;11.27;;;5.67;;
16262;SDS011;8239;48.594;8.598;2024-01-15T07:21:22;10.63;;;5.17;;
16262;SDS011;8239;48.594;8.598;2024-01-15T07:23:49;8.27;;;4.57;;
16262;SDS011;8239;48.594;8.598;2024-01-15T07:26:16;9.43;;;4.57;;
16262;SDS011;8239;48.594;8.598;2024-01-15T07:28:42;8.73;;;4.70;;
16262;SDS011;8239;48.594;8.598;2024-01-15T07:31:09;10.10;;;4.80;;
16262;SDS011;8239;48.594;8.598;2024-01-15T07:33:38;13.70;;;6.37;;
16262;SDS011;8239;48.594;8.598;2024-01-15T07:36:05;10.23;;;5.73;;
16262;SDS011;8239;48.594;8.598;2024-01-15T07:38:32;11.17;;;5.83;;
16262;SDS011;8239;48.594;8.598;2024-01-15T07:40:59;10.07;;;4.70;;
16262;SDS011;8239;48.594;8.598;2024-01-15T07:43:26;10.07;;;4.70;;
16262;SDS011;8239;48.594;8.598;2024-01-15T07:45:53;10.43;;;4.97;;
16262;SDS011;8239;48.594;8.598;2024-01-15T07:48:20;10.03;;;4.87;;
16262;SDS011;8239;48.594;8.598;2024-01-15T07:50:48;11.43;;;4.90;;
16262;SDS011;8239;48.594;8.598;2024-01-15T07:53:15;7.70;;;3.90;;
16262;SDS011;8239;48.594;8.598;2024-01-15T07:55:42;8.77;;;4.60;;
16262;SDS011;8239;48.594;8.598;2024-01-15T07:58:11;8.63;;;4.20;;
16262;SDS011;8239;48.594;8.598;2024-01-15T08:00:38;10.10;;;4.57;;
16262;SDS011;8239;48.594;8.598;2024-01-15T08:03:04;9.60;;;4.63;;
16262;SDS011;8239;48.594;8.598;2024-01-15T08:05:31;10.43;;;4.80;;
16262;SDS011;8239;48.594;8.598;2024-01-15T08:08:00;10.07;;;4.93;;
16262;SDS011;8239;48.594;8.598;2024-01-15T08:10:27;8.47;;;4.00;;
16262;SDS011;8239;48.594;8.598;2024-01-15T08:12:54;8.43;;;4.53;;
16262;SDS011;8239;48.594;8.598;2024-01-15T08:15:21;9.57;;;5.00;;
16262;SDS011;8239;48.594;8.598;2024-01-15T08:17:47;8.73;;;4.60;;
16262;SDS011;8239;48.594;8.598;2024-01-15T08:20:15;10.40;;;5.23;;
16262;SDS011;8239;48.594;8.598;2024-01-15T08:22:42;9.70;;;4.83;;
16262;SDS011;8239;48.594;8.598;2024-01-15T08:25:10;8.87;;;4.37;;
16262;SDS011;8239;48.594;8.598;2024-01-15T08:27:38;10.70;;;4.73;;
16262;SDS011;8239;48.594;8.598;2024-01-15T08:30:05;9.93;;;5.10;;
16262;SDS011;8239;48.594;8.598;2024-01-15T08:32:33;9.90;;;4.27;;
16262;SDS011;8239;48.594;8.598;2024-01-15T08:35:02;8.93;;;4.13;;
16262;SDS011;8239;48.594;8.598;2024-01-15T08:37:29;9.20;;;4.73;;
16262;SDS011;8239;48.594;8.598;2024-01-15T08:39:56;7.93;;;4.03;;
16262;SDS011;8239;48.594;8.598;2024-01-15T08:42:24;10.60;;;4.67;;
16262;SDS011;8239;48.594;8.598;2024-01-15T08:44:51;8.23;;;4.23;;
16262;SDS011;8239;48.594;8.598;2024-01-15T08:47:18;9.23;;;4.47;;
16262;SDS011;8239;48.594;8.598;2024-01-15T08:49:45;9.57;;;4.67;;
16262;SDS011;8239;48.594;8.598;2024-01-15T08:52:12;9.00;;;4.40;;
16262;SDS011;8239;48.594;8.598;2024-01-15T08:54:40;11.17;;;4.63;;
16262;SDS011;8239;48.594;8.598;2024-01-15T08:57:07;9.80;;;4.23;;
16262;SDS011;8239;48.594;8.598;2024-01-15T08:59:35;6.57;;;4.37;;
16262;SDS011;8239;48.594;8.598;2024-01-15T09:02:03;8.40;;;4.30;;
16262;SDS011;8239;48.594;8.598;2024-01-15T09:04:31;7.00;;;3.93;;
16262;SDS011;8239;48.594;8.598;2024-01-15T09:06:58;8.63;;;4.07;;
16262;SDS011;8239;48.594;8.598;2024-01-15T09:09:25;7.47;;;3.53;;
16262;SDS011;8239;48.594;8.598;2024-01-15T09:11:52;7.37;;;3.70;;
16262;SDS011;8239;48.594;8.598;2024-01-15T09:14:19;7.33;;;3.80;;
16262;SDS011;8239;48.594;8.598;2024-01-15T09:16:48;6.70;;;3.27;;
16262;SDS011;8239;48.594;8.598;2024-01-15T09:19:16;8.00;;;4.00;;
16262;SDS011;8239;48.594;8.598;2024-01-15T09:21:42;6.30;;;3.43;;
16262;SDS011;8239;48.594;8.598;2024-01-15T09:24:09;7.53;;;3.87;;
16262;SDS011;8239;48.594;8.598;2024-01-15T09:26:36;7.83;;;3.87;;
16262;SDS011;8239;48.594;8.598;2024-01-15T09:29:03;8.33;;;4.00;;
16262;SDS011;8239;48.594;8.598;2024-01-15T09:31:30;7.50;;;3.63;;
16262;SDS011;8239;48.594;8.598;2024-01-15T09:33:58;6.10;;;3.70;;
16262;SDS011;8239;48.594;8.598;2024-01-15T09:36:27;9.07;;;3.97;;
16262;SDS011;8239;48.594;8.598;2024-01-15T09:38:54;5.17;;;2.90;;
16262;SDS011;8239;48.594;8.598;2024-01-15T09:41:21;5.97;;;3.07;;
16262;SDS011;8239;48.594;8.598;2024-01-15T09:43:48;6.93;;;3.73;;
16262;SDS011;8239;48.594;8.598;2024-01-15T09:46:15;6.80;;;3.17;;
16262;SDS011;8239;48.594;8.598;2024-01-15T09:48:43;6.27;;;3.27;;
16262;SDS011;8239;48.594;8.598;2024-01-15T09:51:11;9.60;;;4.40;;
16262;SDS011;8239;48.594;8.598;2024-01-15T09:53:38;7.93;;;4.37;;
16262;SDS011;8239;48.594;8.598;2024-01-15T09:56:07;7.93;;;3.10;;
16262;SDS011;8239;48.594;8.598;2024-01-15T09:58:37;6.37;;;3.60;;
16262;SDS011;8239;48.594;8.598;2024-01-15T10:01:06;7.43;;;3.17;;
16262;SDS011;8239;48.594;8.598;2024-01-15T10:03:34;6.17;;;3.03;;
16262;SDS011;8239;48.594;8.598;2024-01-15T10:06:01;6.47;;;3.77;;
16262;SDS011;8239;48.594;8.598;2024-01-15T10:08:30;9.23;;;4.50;;
16262;SDS011;8239;48.594;8.598;2024-01-15T10:10:58;8.30;;;3.90;;
16262;SDS011;8239;48.594;8.598;2024-01-15T10:13:25;7.97;;;4.33;;
16262;SDS011;8239;48.594;8.598;2024-01-15T10:15:52;6.60;;;3.37;;
16262;SDS011;8239;48.594;8.598;2024-01-15T10:18:20;4.93;;;2.97;;
16262;SDS011;8239;48.594;8.598;2024-01-15T10:20:47;7.10;;;3.60;;
16262;SDS011;8239;48.594;8.598;2024-01-15T10:23:14;6.40;;;3.73;;
16262;SDS011;8239;48.594;8.598;2024-01-15T10:25:43;5.90;;;2.83;;
16262;SDS011;8239;48.594;8.598;2024-01-15T10:28:10;7.83;;;3.73;;
16262;SDS011;8239;48.594;8.598;2024-01-15T10:30:37;8.03;;;4.33;;
16262;SDS011;8239;48.594;8.598;2024-01-15T10:33:04;8.00;;;3.80;;
16262;SDS011;8239;48.594;8.598;2024-01-15T10:35:31;11.43;;;4.70;;
16262;SDS011;8239;48.594;8.598;2024-01-15T10:37:59;8.20;;;4.17;;
16262;SDS011;8239;48.594;8.598;2024-01-15T10:40:26;7.60;;;4.17;;
16262;SDS011;8239;48.594;8.598;2024-01-15T10:42:55;8.93;;;4.40;;
16262;SDS011;8239;48.594;8.598;2024-01-15T10:45:22;8.77;;;4.20;;
16262;SDS011;8239;48.594;8.598;2024-01-15T10:47:49;9.20;;;4.57;;
16262;SDS011;8239;48.594;8.598;2024-01-15T10:50:16;10.87;;;5.27;;
16262;SDS011;8239;48.594;8.598;2024-01-15T10:52:43;14.97;;;8.93;;
16262;SDS011;8239;48.594;8.598;2024-01-15T10:55:10;8.40;;;5.90;;
16262;SDS011;8239;48.594;8.598;2024-01-15T10:57:38;7.73;;;3.97;;
16262;SDS011;8239;48.594;8.598;2024-01-15T11:00:07;6.17;;;3.03;;
16262;SDS011;8239;48.594;8.598;2024-01-15T11:02:39;6.13;;;3.63;;
16262;SDS011;8239;48.594;8.598;2024-01-15T11:05:07;6.73;;;2.97;;
16262;SDS011;8239;48.594;8.598;2024-01-15T11:07:33;8.37;;;4.67;;
16262;SDS011;8239;48.594;8.598;2024-01-15T11:10:02;4.73;;;2.87;;
16262;SDS011;8239;48.594;8.598;2024-01-15T11:12:30;7.90;;;4.30;;
16262;SDS011;8239;48.594;8.598;2024-01-15T11:15:01;6.93;;;4.07;;
16262;SDS011;8239;48.594;8.598;2024-01-15T11:17:57;5.83;;;3.27;;
16262;SDS011;8239;48.594;8.598;2024-01-15T11:20:26;6.70;;;3.83;;
16262;SDS011;8239;48.594;8.598;2024-01-15T11:22:53;6.37;;;3.73;;
16262;SDS011;8239;48.594;8.598;2024-01-15T11:25:22;8.73;;;3.77;;
16262;SDS011;8239;48.594;8.598;2024-01-15T11:27:50;6.70;;;3.47;;
16262;SDS011;8239;48.594;8.598;2024-01-15T11:30:18;5.87;;;3.43;;
16262;SDS011;8239;48.594;8.598;2024-01-15T11:32:47;6.13;;;3.97;;
16262;SDS011;8239;48.594;8.598;2024-01-15T11:35:14;6.23;;;3.20;;
16262;SDS011;8239;48.594;8.598;2024-01-15T11:40:38;7.37;;;3.97;;
16262;SDS011;8239;48.594;8.598;2024-01-15T11:43:07;7.17;;;3.60;;
16262;SDS011;8239;48.594;8.598;2024-01-15T11:45:35;8.17;;;4.50;;
16262;SDS011;8239;48.594;8.598;2024-01-15T11:48:10;6.80;;;4.00;;
16262;SDS011;8239;48.594;8.598;2024-01-15T11:50:41;5.70;;;2.70;;
16262;SDS011;8239;48.594;8.598;2024-01-15T11:53:16;6.20;;;3.10;;
16262;SDS011;8239;48.594;8.598;2024-01-15T11:55:45;7.50;;;4.57;;
16262;SDS011;8239;48.594;8.598;2024-01-15T11:58:13;5.70;;;3.80;;
16262;SDS011;8239;48.594;8.598;2024-01-15T12:00:42;5.77;;;3.17;;
16262;SDS011;8239;48.594;8.598;2024-01-15T12:03:12;5.30;;;3.10;;
16262;SDS011;8239;48.594;8.598;2024-01-15T12:05:39;6.27;;;3.77;;
16262;SDS011;8239;48.594;8.598;2024-01-15T12:08:07;5.17;;;2.57;;
16262;SDS011;8239;48.594;8.598;2024-01-15T12:10:36;7.23;;;4.50;;
16262;SDS011;8239;48.594;8.598;2024-01-15T12:13:04;7.00;;;4.23;;
16262;SDS011;8239;48.594;8.598;2024-01-15T12:15:35;7.70;;;3.80;;
16262;SDS011;8239;48.594;8.598;2024-01-15T12:18:03;7.80;;;3.63;;
16262;SDS011;8239;48.594;8.598;2024-01-15T12:20:32;6.07;;;3.23;;
16262;SDS011;8239;48.594;8.598;2024-01-15T12:22:59;21.50;;;8.37;;
16262;SDS011;8239;48.594;8.598;2024-01-15T12:25:28;3.60;;;3.03;;
16262;SDS011;8239;48.594;8.598;2024-01-15T12:27:56;2.97;;;2.07;;
16262;SDS011;8239;48.594;8.598;2024-01-15T12:30:23;3.97;;;2.60;;
16262;SDS011;8239;48.594;8.598;2024-01-15T12:32:51;3.00;;;2.13;;
16262;SDS011;8239;48.594;8.598;2024-01-15T12:35:18;2.90;;;1.97;;
16262;SDS011;8239;48.594;8.598;2024-01-15T12:37:47;3.77;;;2.23;;
16262;SDS011;8239;48.594;8.598;2024-01-15T12:40:18;2.53;;;2.17;;
16262;SDS011;8239;48.594;8.598;2024-01-15T12:42:46;3.00;;;1.87;;
16262;SDS011;8239;48.594;8.598;2024-01-15T12:45:13;3.23;;;1.73;;
16262;SDS011;8239;48.594;8.598;2024-01-15T12:47:40;3.87;;;2.00;;
16262;SDS011;8239;48.594;8.598;2024-01-15T12:50:08;2.00;;;1.70;;
16262;SDS011;8239;48.594;8.598;2024-01-15T12:52:37;1.70;;;1.30;;
16262;SDS011;8239;48.594;8.598;2024-01-15T12:55:06;2.30;;;1.70;;
16262;SDS011;8239;48.594;8.598;2024-01-15T12:57:34;2.97;;;1.60;;
16262;SDS011;8239;48.594;8.598;2024-01-15T13:00:02;2.73;;;1.70;;
16262;SDS011;8239;48.594;8.598;2024-01-15T13:02:31;2.60;;;1.80;;
16262;SDS011;8239;48.594;8.598;2024-01-15T13:04:59;3.20;;;1.73;;
16262;SDS011;8239;48.594;8.598;2024-01-15T13:07:26;2.67;;;1.53;;
16262;SDS011;8239;48.594;8.598;2024-01-15T13:09:53;3.20;;;2.03;;
16262;SDS011;8239;48.594;8.598;2024-01-15T13:12:22;2.40;;;2.10;;
16262;SDS011;8239;48.594;8.598;2024-01-15T13:14:49;2.53;;;1.87;;
16262;SDS011;8239;48.594;8.598;2024-01-15T13:17:16;2.67;;;1.53;;
16262;SDS011;8239;48.594;8.598;2024-01-15T13:19:43;4.87;;;1.80;;
16262;SDS011;8239;48.594;8.598;2024-01-15T13:22:10;2.90;;;1.50;;
16262;SDS011;8239;48.594;8.598;2024-01-15T13:24:39;1.27;;;1.17;;
16262;SDS011;8239;48.594;8.598;2024-01-15T13:27:06;2.87;;;1.43;;
16262;SDS011;8239;48.594;8.598;2024-01-15T13:29:35;2.63;;;1.30;;
16262;SDS011;8239;48.594;8.598;2024-01-15T13:32:03;2.43;;;1.47;;
16262;SDS011;8239;48.594;8.598;2024-01-15T13:34:33;2.63;;;1.60;;
16262;SDS011;8239;48.594;8.598;2024-01-15T13:37:00;2.00;;;1.27;;
16262;SDS011;8239;48.594;8.598;2024-01-15T13:39:27;1.33;;;1.23;;
16262;SDS011;8239;48.594;8.598;2024-01-15T13:41:58;1.40;;;1.30;;
16262;SDS011;8239;48.594;8.598;2024-01-15T13:44:26;2.30;;;1.40;;
16262;SDS011;8239;48.594;8.598;2024-01-15T13:46:54;2.33;;;1.47;;
16262;SDS011;8239;48.594;8.598;2024-01-15T13:49:22;0.93;;;0.80;;
16262;SDS011;8239;48.594;8.598;2024-01-15T13:51:50;2.00;;;1.60;;
16262;SDS011;8239;48.594;8.598;2024-01-15T13:54:17;1.17;;;1.00;;
16262;SDS011;8239;48.594;8.598;2024-01-15T13:56:45;1.77;;;1.30;;
16262;SDS011;8239;48.594;8.598;2024-01-15T13:59:13;1.03;;;0.90;;
16262;SDS011;8239;48.594;8.598;2024-01-15T14:01:40;1.90;;;1.70;;
16262;SDS011;8239;48.594;8.598;2024-01-15T14:04:09;1.00;;;0.80;;
16262;SDS011;8239;48.594;8.598;2024-01-15T14:06:36;0.70;;;0.70;;
16262;SDS011;8239;48.594;8.598;2024-01-15T14:09:04;1.00;;;0.87;;
16262;SDS011;8239;48.594;8.598;2024-01-15T14:11:34;1.33;;;1.23;;
16262;SDS011;8239;48.594;8.598;2024-01-15T14:14:01;1.40;;;1.30;;
16262;SDS011;8239;48.594;8.598;2024-01-15T14:16:28;1.37;;;1.27;;
16262;SDS011;8239;48.594;8.598;2024-01-15T14:18:55;0.93;;;0.90;;
16262;SDS011;8239;48.594;8.598;2024-01-15T14:21:24;0.90;;;0.90;;
16262;SDS011;8239;48.594;8.598;2024-01-15T14:23:51;1.07;;;0.90;;
16262;SDS011;8239;48.594;8.598;2024-01-15T14:26:18;1.27;;;1.17;;
16262;SDS011;8239;48.594;8.598;2024-01-15T14:28:45;1.57;;;1.47;;
16262;SDS011;8239;48.594;8.598;2024-01-15T14:31:13;1.80;;;1.50;;
16262;SDS011;8239;48.594;8.598;2024-01-15T14:33:40;3.87;;;1.80;;
16262;SDS011;8239;48.594;8.598;2024-01-15T14:36:07;2.43;;;1.70;;
16262;SDS011;8239;48.594;8.598;2024-01-15T14:38:35;2.17;;;1.70;;
16262;SDS011;8239;48.594;8.598;2024-01-15T14:41:03;1.83;;;1.70;;
16262;SDS011;8239;48.594;8.598;2024-01-15T14:43:30;3.40;;;1.80;;
16262;SDS011;8239;48.594;8.598;2024-01-15T14:45:58;3.30;;;2.20;;
16262;SDS011;8239;48.594;8.598;2024-01-15T14:48:25;3.37;;;2.00;;
16262;SDS011;8239;48.594;8.598;2024-01-15T14:50:52;2.80;;;2.33;;
16262;SDS011;8239;48.594;8.598;2024-01-15T14:53:19;4.50;;;2.77;;
16262;SDS011;8239;48.594;8.598;2024-01-15T14:55:47;4.30;;;2.77;;
16262;SDS011;8239;48.594;8.598;2024-01-15T14:58:15;3.83;;;2.90;;
16262;SDS011;8239;48.594;8.598;2024-01-15T15:00:42;3.40;;;2.27;;